sensor_id;sensor_type;location;lat;lon;timestamp;temperature;humidity
5457;DHT22;2751;49.802;9.944;2022-12-24T00:01:35;11.50;99.90
5457;DHT22;2751;49.802;9.944;2022-12-24T00:04:02;11.50;99.90
5457;DHT22;2751;49.802;9.944;2022-12-24T00:06:29;11.50;99.90
5457;DHT22;2751;49.802;9.944;2022-12-24T00:08:56;11.50;99.90
5457;DHT22;2751;49.802;9.944;2022-12-24T00:11:23;11.50;99.90
5457;DHT22;2751;49.802;9.944;2022-12-24T00:13:51;11.50;99.90
5457;DHT22;2751;49.802;9.944;2022-12-24T00:16:18;11.40;99.90
5457;DHT22;2751;49.802;9.944;2022-12-24T00:18:45;11.40;99.90
5457;DHT22;2751;49.802;9.944;2022-12-24T00:21:12;11.40;99.90
5457;DHT22;2751;49.802;9.944;2022-12-24T00:23:39;11.40;99.90
5457;DHT22;2751;49.802;9.944;2022-12-24T00:26:06;11.50;99.90
5457;DHT22;2751;49.802;9.944;2022-12-24T00:28:33;11.40;99.90
5457;DHT22;2751;49.802;9.944;2022-12-24T00:31:08;11.40;99.90
5457;DHT22;2751;49.802;9.944;2022-12-24T00:33:35;11.40;99.90
5457;DHT22;2751;49.802;9.944;2022-12-24T00:36:01;11.40;99.90
5457;DHT22;2751;49.802;9.944;2022-12-24T00:38:28;11.40;99.90
5457;DHT22;2751;49.802;9.944;2022-12-24T00:40:58;11.30;99.90
5457;DHT22;2751;49.802;9.944;2022-12-24T00:43:25;11.40;99.90
5457;DHT22;2751;49.802;9.944;2022-12-24T00:45:52;11.40;99.90
5457;DHT22;2751;49.802;9.944;2022-12-24T00:48:21;11.40;99.90
5457;DHT22;2751;49.802;9.944;2022-12-24T00:50:48;11.40;99.90
5457;DHT22;2751;49.802;9.944;2022-12-24T00:53:15;11.30;99.90
5457;DHT22;2751;49.802;9.944;2022-12-24T00:55:42;11.40;99.90
5457;DHT22;2751;49.802;9.944;2022-12-24T00:58:09;11.30;99.90
5457;DHT22;2751;49.802;9.944;2022-12-24T01:00:36;11.30;99.90
5457;DHT22;2751;49.802;9.944;2022-12-24T01:03:03;11.30;99.90
5457;DHT22;2751;49.802;9.944;2022-12-24T01:05:31;11.30;99.90
5457;DHT22;2751;49.802;9.944;2022-12-24T01:07:57;11.30;99.90
5457;DHT22;2751;49.802;9.944;2022-12-24T01:10:24;11.30;99.90
5457;DHT22;2751;49.802;9.944;2022-12-24T01:12:51;11.20;99.90
5457;DHT22;2751;49.802;9.944;2022-12-24T01:15:18;11.20;99.90
5457;DHT22;2751;49.802;9.944;2022-12-24T01:17:45;11.10;99.90
5457;DHT22;2751;49.802;9.944;2022-12-24T01:20:14;11.10;99.90
5457;DHT22;2751;49.802;9.944;2022-12-24T01:22:42;11.10;99.90
5457;DHT22;2751;49.802;9.944;2022-12-24T01:25:10;11.00;99.90
5457;DHT22;2751;49.802;9.944;2022-12-24T01:27:37;11.10;99.90
5457;DHT22;2751;49.802;9.944;2022-12-24T01:30:05;11.10;99.90
5457;DHT22;2751;49.802;9.944;2022-12-24T01:32:32;11.10;99.90
5457;DHT22;2751;49.802;9.944;2022-12-24T01:34:59;11.10;99.90
5457;DHT22;2751;49.802;9.944;2022-12-24T01:37:26;11.10;99.90
5457;DHT22;2751;49.802;9.944;2022-12-24T01:39:54;11.00;99.90
5457;DHT22;2751;49.802;9.944;2022-12-24T01:42:44;11.00;99.90
5457;DHT22;2751;49.802;9.944;2022-12-24T01:45:53;11.00;99.90
5457;DHT22;2751;49.802;9.944;2022-12-24T01:48:27;10.90;99.90
5457;DHT22;2751;49.802;9.944;2022-12-24T01:51:00;10.90;99.90
5457;DHT22;2751;49.802;9.944;2022-12-24T01:53:28;10.90;99.90
5457;DHT22;2751;49.802;9.944;2022-12-24T01:55:58;10.90;99.90
5457;DHT22;2751;49.802;9.944;2022-12-24T01:58:26;10.90;99.90
5457;DHT22;2751;49.802;9.944;2022-12-24T02:00:53;11.00;99.90
5457;DHT22;2751;49.802;9.944;2022-12-24T02:03:20;10.90;99.90
5457;DHT22;2751;49.802;9.944;2022-12-24T02:05:48;11.00;99.90
5457;DHT22;2751;49.802;9.944;2022-12-24T02:08:17;11.00;99.90
5457;DHT22;2751;49.802;9.944;2022-12-24T02:10:44;11.00;99.90
5457;DHT22;2751;49.802;9.944;2022-12-24T02:13:13;11.00;99.90
5457;DHT22;2751;49.802;9.944;2022-12-24T02:15:50;11.00;99.90
5457;DHT22;2751;49.802;9.944;2022-12-24T02:18:24;11.00;99.90
5457;DHT22;2751;49.802;9.944;2022-12-24T02:21:27;11.00;99.90
5457;DHT22;2751;49.802;9.944;2022-12-24T02:24:25;11.00;99.90
5457;DHT22;2751;49.802;9.944;2022-12-24T02:27:20;11.00;99.90
5457;DHT22;2751;49.802;9.944;2022-12-24T02:30:07;11.00;99.90
5457;DHT22;2751;49.802;9.944;2022-12-24T02:32:47;10.90;99.90
5457;DHT22;2751;49.802;9.944;2022-12-24T02:35:20;10.90;99.90
5457;DHT22;2751;49.802;9.944;2022-12-24T02:37:52;10.80;99.90
5457;DHT22;2751;49.802;9.944;2022-12-24T02:40:23;10.80;99.90
5457;DHT22;2751;49.802;9.944;2022-12-24T02:42:55;10.80;99.90
5457;DHT22;2751;49.802;9.944;2022-12-24T02:45:28;11.20;99.90
5457;DHT22;2751;49.802;9.944;2022-12-24T02:47:56;10.90;99.90
5457;DHT22;2751;49.802;9.944;2022-12-24T02:50:24;10.90;99.90
5457;DHT22;2751;49.802;9.944;2022-12-24T02:52:51;10.90;99.90
5457;DHT22;2751;49.802;9.944;2022-12-24T02:55:22;10.90;99.90
5457;DHT22;2751;49.802;9.944;2022-12-24T02:58:06;10.90;99.90
5457;DHT22;2751;49.802;9.944;2022-12-24T03:00:48;11.00;99.90
5457;DHT22;2751;49.802;9.944;2022-12-24T03:03:29;11.00;99.90
5457;DHT22;2751;49.802;9.944;2022-12-24T03:06:03;11.00;99.90
5457;DHT22;2751;49.802;9.944;2022-12-24T03:08:41;10.90;99.90
5457;DHT22;2751;49.802;9.944;2022-12-24T03:11:11;10.90;99.90
5457;DHT22;2751;49.802;9.944;2022-12-24T03:13:38;10.80;99.90
5457;DHT22;2751;49.802;9.944;2022-12-24T03:16:10;10.80;99.90
5457;DHT22;2751;49.802;9.944;2022-12-24T03:18:40;10.80;99.90
5457;DHT22;2751;49.802;9.944;2022-12-24T03:21:11;10.80;99.90
5457;DHT22;2751;49.802;9.944;2022-12-24T03:23:39;10.80;99.90
5457;DHT22;2751;49.802;9.944;2022-12-24T03:26:10;10.70;99.90
5457;DHT22;2751;49.802;9.944;2022-12-24T03:28:39;10.70;99.90
5457;DHT22;2751;49.802;9.944;2022-12-24T03:31:09;10.70;99.90
5457;DHT22;2751;49.802;9.944;2022-12-24T03:33:36;10.70;99.90
5457;DHT22;2751;49.802;9.944;2022-12-24T03:36:04;10.70;99.90
5457;DHT22;2751;49.802;9.944;2022-12-24T03:38:31;10.60;99.90
5457;DHT22;2751;49.802;9.944;2022-12-24T03:40:58;10.60;99.90
5457;DHT22;2751;49.802;9.944;2022-12-24T03:43:25;10.60;99.90
5457;DHT22;2751;49.802;9.944;2022-12-24T03:45:52;10.60;99.90
5457;DHT22;2751;49.802;9.944;2022-12-24T03:48:20;10.60;99.90
5457;DHT22;2751;49.802;9.944;2022-12-24T03:50:47;10.60;99.90
5457;DHT22;2751;49.802;9.944;2022-12-24T03:53:14;10.60;99.90
5457;DHT22;2751;49.802;9.944;2022-12-24T03:55:41;10.60;99.90
5457;DHT22;2751;49.802;9.944;2022-12-24T03:58:08;10.70;99.90
5457;DHT22;2751;49.802;9.944;2022-12-24T04:00:35;10.70;99.90
5457;DHT22;2751;49.802;9.944;2022-12-24T04:03:02;10.70;99.90
5457;DHT22;2751;49.802;9.944;2022-12-24T04:05:30;10.70;99.90
5457;DHT22;2751;49.802;9.944;2022-12-24T04:07:57;10.70;99.90
5457;DHT22;2751;49.802;9.944;2022-12-24T04:10:23;10.70;99.90
5457;DHT22;2751;49.802;9.944;2022-12-24T04:12:50;10.70;99.90
5457;DHT22;2751;49.802;9.944;2022-12-24T04:15:17;10.70;99.90
5457;DHT22;2751;49.802;9.944;2022-12-24T04:17:44;10.70;99.90
5457;DHT22;2751;49.802;9.944;2022-12-24T04:20:11;10.70;99.90
5457;DHT22;2751;49.802;9.944;2022-12-24T04:22:39;10.70;99.90
5457;DHT22;2751;49.802;9.944;2022-12-24T04:25:07;10.70;99.90
5457;DHT22;2751;49.802;9.944;2022-12-24T04:27:34;10.70;99.90
5457;DHT22;2751;49.802;9.944;2022-12-24T04:30:01;10.80;99.90
5457;DHT22;2751;49.802;9.944;2022-12-24T04:32:28;10.80;99.90
5457;DHT22;2751;49.802;9.944;2022-12-24T04:34:55;10.80;99.90
5457;DHT22;2751;49.802;9.944;2022-12-24T04:37:22;10.80;99.90
5457;DHT22;2751;49.802;9.944;2022-12-24T04:39:51;10.80;99.90
5457;DHT22;2751;49.802;9.944;2022-12-24T04:42:17;10.80;99.90
5457;DHT22;2751;49.802;9.944;2022-12-24T04:44:44;10.80;99.90
5457;DHT22;2751;49.802;9.944;2022-12-24T04:47:11;10.70;99.90
5457;DHT22;2751;49.802;9.944;2022-12-24T04:49:38;10.80;99.90
5457;DHT22;2751;49.802;9.944;2022-12-24T04:52:05;10.70;99.90
5457;DHT22;2751;49.802;9.944;2022-12-24T04:54:32;10.70;99.90
5457;DHT22;2751;49.802;9.944;2022-12-24T04:57:00;10.70;99.90
5457;DHT22;2751;49.802;9.944;2022-12-24T04:59:27;10.70;99.90
5457;DHT22;2751;49.802;9.944;2022-12-24T05:01:54;10.70;99.90
5457;DHT22;2751;49.802;9.944;2022-12-24T05:04:21;10.70;99.90
5457;DHT22;2751;49.802;9.944;2022-12-24T05:06:47;10.80;99.90
5457;DHT22;2751;49.802;9.944;2022-12-24T05:09:14;10.80;99.90
5457;DHT22;2751;49.802;9.944;2022-12-24T05:11:41;10.80;99.90
5457;DHT22;2751;49.802;9.944;2022-12-24T05:14:09;10.80;99.90
5457;DHT22;2751;49.802;9.944;2022-12-24T05:16:36;10.80;99.90
5457;DHT22;2751;49.802;9.944;2022-12-24T05:19:03;10.80;99.90
5457;DHT22;2751;49.802;9.944;2022-12-24T05:21:30;10.80;99.90
5457;DHT22;2751;49.802;9.944;2022-12-24T05:23:57;10.80;99.90
5457;DHT22;2751;49.802;9.944;2022-12-24T05:26:43;10.80;99.90
5457;DHT22;2751;49.802;9.944;2022-12-24T05:29:12;10.80;99.90
5457;DHT22;2751;49.802;9.944;2022-12-24T05:31:39;10.80;99.90
5457;DHT22;2751;49.802;9.944;2022-12-24T05:34:07;10.70;99.90
5457;DHT22;2751;49.802;9.944;2022-12-24T05:36:35;10.80;99.90
5457;DHT22;2751;49.802;9.944;2022-12-24T05:39:01;10.70;99.90
5457;DHT22;2751;49.802;9.944;2022-12-24T05:41:29;10.70;99.90
5457;DHT22;2751;49.802;9.944;2022-12-24T05:43:56;10.80;99.90
5457;DHT22;2751;49.802;9.944;2022-12-24T05:46:24;10.80;99.90
5457;DHT22;2751;49.802;9.944;2022-12-24T05:48:52;10.80;99.90
5457;DHT22;2751;49.802;9.944;2022-12-24T05:51:20;10.80;99.90
5457;DHT22;2751;49.802;9.944;2022-12-24T05:53:49;10.80;99.90
5457;DHT22;2751;49.802;9.944;2022-12-24T05:56:18;10.80;99.90
5457;DHT22;2751;49.802;9.944;2022-12-24T05:58:45;10.80;99.90
5457;DHT22;2751;49.802;9.944;2022-12-24T06:01:13;10.80;99.90
5457;DHT22;2751;49.802;9.944;2022-12-24T06:03:41;10.80;99.90
5457;DHT22;2751;49.802;9.944;2022-12-24T06:06:11;10.80;99.90
5457;DHT22;2751;49.802;9.944;2022-12-24T06:08:39;10.80;99.90
5457;DHT22;2751;49.802;9.944;2022-12-24T06:11:08;10.80;99.90
5457;DHT22;2751;49.802;9.944;2022-12-24T06:13:35;10.70;99.90
5457;DHT22;2751;49.802;9.944;2022-12-24T06:16:05;10.70;99.90
5457;DHT22;2751;49.802;9.944;2022-12-24T06:18:33;10.70;99.90
5457;DHT22;2751;49.802;9.944;2022-12-24T06:21:02;10.70;99.90
5457;DHT22;2751;49.802;9.944;2022-12-24T06:23:31;10.80;99.90
5457;DHT22;2751;49.802;9.944;2022-12-24T06:26:00;10.80;99.90
5457;DHT22;2751;49.802;9.944;2022-12-24T06:28:30;10.80;99.90
5457;DHT22;2751;49.802;9.944;2022-12-24T06:30:57;10.80;99.90
5457;DHT22;2751;49.802;9.944;2022-12-24T06:33:26;10.80;99.90
5457;DHT22;2751;49.802;9.944;2022-12-24T06:35:53;10.80;99.90
5457;DHT22;2751;49.802;9.944;2022-12-24T06:38:21;10.80;99.90
5457;DHT22;2751;49.802;9.944;2022-12-24T06:40:48;10.80;99.90
5457;DHT22;2751;49.802;9.944;2022-12-24T06:43:15;10.80;99.90
5457;DHT22;2751;49.802;9.944;2022-12-24T06:45:44;10.80;99.90
5457;DHT22;2751;49.802;9.944;2022-12-24T06:48:11;10.80;99.90
5457;DHT22;2751;49.802;9.944;2022-12-24T06:50:39;10.80;99.90
5457;DHT22;2751;49.802;9.944;2022-12-24T06:53:06;10.80;99.90
5457;DHT22;2751;49.802;9.944;2022-12-24T06:55:34;10.80;99.90
5457;DHT22;2751;49.802;9.944;2022-12-24T06:58:01;10.80;99.90
5457;DHT22;2751;49.802;9.944;2022-12-24T07:00:28;10.70;99.90
5457;DHT22;2751;49.802;9.944;2022-12-24T07:02:55;10.70;99.90
5457;DHT22;2751;49.802;9.944;2022-12-24T07:05:22;10.70;99.90
5457;DHT22;2751;49.802;9.944;2022-12-24T07:07:49;10.60;99.90
5457;DHT22;2751;49.802;9.944;2022-12-24T07:10:17;10.90;99.90
5457;DHT22;2751;49.802;9.944;2022-12-24T07:12:46;10.50;99.90
5457;DHT22;2751;49.802;9.944;2022-12-24T07:15:13;10.60;99.90
5457;DHT22;2751;49.802;9.944;2022-12-24T07:17:41;10.40;99.90
5457;DHT22;2751;49.802;9.944;2022-12-24T07:20:11;10.40;99.90
5457;DHT22;2751;49.802;9.944;2022-12-24T07:22:39;10.40;99.90
5457;DHT22;2751;49.802;9.944;2022-12-24T07:25:06;10.40;99.90
5457;DHT22;2751;49.802;9.944;2022-12-24T07:27:33;10.40;99.90
5457;DHT22;2751;49.802;9.944;2022-12-24T07:30:02;10.40;99.90
5457;DHT22;2751;49.802;9.944;2022-12-24T07:32:29;10.40;99.90
5457;DHT22;2751;49.802;9.944;2022-12-24T07:34:56;10.40;99.90
5457;DHT22;2751;49.802;9.944;2022-12-24T07:37:23;10.40;99.90
5457;DHT22;2751;49.802;9.944;2022-12-24T07:39:50;10.70;99.90
5457;DHT22;2751;49.802;9.944;2022-12-24T07:42:17;10.50;99.90
5457;DHT22;2751;49.802;9.944;2022-12-24T07:44:43;10.50;99.90
5457;DHT22;2751;49.802;9.944;2022-12-24T07:47:12;10.50;99.90
5457;DHT22;2751;49.802;9.944;2022-12-24T07:49:38;10.60;99.90
5457;DHT22;2751;49.802;9.944;2022-12-24T07:52:05;10.70;99.90
5457;DHT22;2751;49.802;9.944;2022-12-24T07:54:32;10.90;99.90
5457;DHT22;2751;49.802;9.944;2022-12-24T07:56:59;10.70;99.90
5457;DHT22;2751;49.802;9.944;2022-12-24T07:59:26;10.70;99.90
5457;DHT22;2751;49.802;9.944;2022-12-24T08:01:53;10.70;99.90
5457;DHT22;2751;49.802;9.944;2022-12-24T08:04:21;10.80;99.90
5457;DHT22;2751;49.802;9.944;2022-12-24T08:06:48;10.80;99.90
5457;DHT22;2751;49.802;9.944;2022-12-24T08:09:15;10.80;99.90
5457;DHT22;2751;49.802;9.944;2022-12-24T08:11:42;10.80;99.90
5457;DHT22;2751;49.802;9.944;2022-12-24T08:14:09;10.80;99.90
5457;DHT22;2751;49.802;9.944;2022-12-24T08:16:36;10.90;99.90
5457;DHT22;2751;49.802;9.944;2022-12-24T08:19:02;10.90;99.90
5457;DHT22;2751;49.802;9.944;2022-12-24T08:21:31;10.90;99.90
5457;DHT22;2751;49.802;9.944;2022-12-24T08:23:57;10.90;99.90
5457;DHT22;2751;49.802;9.944;2022-12-24T08:26:24;10.90;99.90
5457;DHT22;2751;49.802;9.944;2022-12-24T08:28:51;10.80;99.90
5457;DHT22;2751;49.802;9.944;2022-12-24T08:31:18;10.80;99.90
5457;DHT22;2751;49.802;9.944;2022-12-24T08:33:45;10.80;99.90
5457;DHT22;2751;49.802;9.944;2022-12-24T08:36:11;10.90;99.90
5457;DHT22;2751;49.802;9.944;2022-12-24T08:38:40;10.90;99.90
5457;DHT22;2751;49.802;9.944;2022-12-24T08:41:07;10.90;99.90
5457;DHT22;2751;49.802;9.944;2022-12-24T08:43:33;10.90;99.90
5457;DHT22;2751;49.802;9.944;2022-12-24T08:46:02;10.90;99.90
5457;DHT22;2751;49.802;9.944;2022-12-24T08:48:29;10.90;99.90
5457;DHT22;2751;49.802;9.944;2022-12-24T08:50:57;10.90;99.90
5457;DHT22;2751;49.802;9.944;2022-12-24T08:53:23;10.90;99.90
5457;DHT22;2751;49.802;9.944;2022-12-24T08:55:52;10.90;99.90
5457;DHT22;2751;49.802;9.944;2022-12-24T08:58:19;10.90;99.90
5457;DHT22;2751;49.802;9.944;2022-12-24T09:00:45;11.00;99.90
5457;DHT22;2751;49.802;9.944;2022-12-24T09:03:13;11.00;99.90
5457;DHT22;2751;49.802;9.944;2022-12-24T09:05:41;11.10;99.90
5457;DHT22;2751;49.802;9.944;2022-12-24T09:08:08;11.10;99.90
5457;DHT22;2751;49.802;9.944;2022-12-24T09:10:35;11.30;99.90
5457;DHT22;2751;49.802;9.944;2022-12-24T09:13:03;11.40;99.90
5457;DHT22;2751;49.802;9.944;2022-12-24T09:15:30;11.40;99.90
5457;DHT22;2751;49.802;9.944;2022-12-24T09:17:57;11.40;99.90
5457;DHT22;2751;49.802;9.944;2022-12-24T09:20:24;11.40;99.90
5457;DHT22;2751;49.802;9.944;2022-12-24T09:22:51;11.40;99.90
5457;DHT22;2751;49.802;9.944;2022-12-24T09:25:18;11.40;99.90
5457;DHT22;2751;49.802;9.944;2022-12-24T09:27:45;11.40;99.90
5457;DHT22;2751;49.802;9.944;2022-12-24T09:30:14;11.40;99.90
5457;DHT22;2751;49.802;9.944;2022-12-24T09:32:41;11.30;99.90
5457;DHT22;2751;49.802;9.944;2022-12-24T09:35:08;11.30;99.90
5457;DHT22;2751;49.802;9.944;2022-12-24T09:37:36;11.30;99.90
5457;DHT22;2751;49.802;9.944;2022-12-24T09:40:03;11.30;99.90
5457;DHT22;2751;49.802;9.944;2022-12-24T09:42:40;11.30;99.90
5457;DHT22;2751;49.802;9.944;2022-12-24T09:45:17;11.40;99.90
5457;DHT22;2751;49.802;9.944;2022-12-24T09:47:47;11.40;99.90
5457;DHT22;2751;49.802;9.944;2022-12-24T09:50:26;11.50;99.90
5457;DHT22;2751;49.802;9.944;2022-12-24T09:52:56;11.60;99.90
5457;DHT22;2751;49.802;9.944;2022-12-24T09:55:27;11.70;99.90
5457;DHT22;2751;49.802;9.944;2022-12-24T09:57:56;11.80;99.90
5457;DHT22;2751;49.802;9.944;2022-12-24T10:00:27;11.90;99.90
5457;DHT22;2751;49.802;9.944;2022-12-24T10:02:54;12.00;99.90
5457;DHT22;2751;49.802;9.944;2022-12-24T10:05:31;12.10;99.90
5457;DHT22;2751;49.802;9.944;2022-12-24T10:08:07;12.20;99.90
5457;DHT22;2751;49.802;9.944;2022-12-24T10:10:43;12.10;99.90
5457;DHT22;2751;49.802;9.944;2022-12-24T10:13:17;12.00;99.90
5457;DHT22;2751;49.802;9.944;2022-12-24T10:15:53;12.10;99.90
5457;DHT22;2751;49.802;9.944;2022-12-24T10:18:29;12.00;99.90
5457;DHT22;2751;49.802;9.944;2022-12-24T10:21:05;11.90;99.90
5457;DHT22;2751;49.802;9.944;2022-12-24T10:23:39;11.90;99.90
5457;DHT22;2751;49.802;9.944;2022-12-24T10:26:13;11.90;99.90
5457;DHT22;2751;49.802;9.944;2022-12-24T10:28:45;12.10;99.90
5457;DHT22;2751;49.802;9.944;2022-12-24T10:31:14;12.10;99.90
5457;DHT22;2751;49.802;9.944;2022-12-24T10:33:42;12.00;99.90
5457;DHT22;2751;49.802;9.944;2022-12-24T10:36:14;12.00;99.90
5457;DHT22;2751;49.802;9.944;2022-12-24T10:38:42;12.20;99.90
5457;DHT22;2751;49.802;9.944;2022-12-24T10:41:09;12.40;99.90
5457;DHT22;2751;49.802;9.944;2022-12-24T10:43:38;12.40;99.90
5457;DHT22;2751;49.802;9.944;2022-12-24T10:46:15;12.40;99.90
5457;DHT22;2751;49.802;9.944;2022-12-24T10:48:45;12.20;99.90
5457;DHT22;2751;49.802;9.944;2022-12-24T10:51:19;12.20;99.90
5457;DHT22;2751;49.802;9.944;2022-12-24T10:53:48;12.20;99.90
5457;DHT22;2751;49.802;9.944;2022-12-24T10:56:18;12.20;99.90
5457;DHT22;2751;49.802;9.944;2022-12-24T10:58:51;12.30;99.90
5457;DHT22;2751;49.802;9.944;2022-12-24T11:01:21;12.40;99.90
5457;DHT22;2751;49.802;9.944;2022-12-24T11:04:14;12.40;99.90
5457;DHT22;2751;49.802;9.944;2022-12-24T11:06:51;12.40;99.90
5457;DHT22;2751;49.802;9.944;2022-12-24T11:09:21;12.40;99.90
5457;DHT22;2751;49.802;9.944;2022-12-24T11:11:48;12.40;99.90
5457;DHT22;2751;49.802;9.944;2022-12-24T11:14:17;12.40;99.90
5457;DHT22;2751;49.802;9.944;2022-12-24T11:16:51;12.40;99.90
5457;DHT22;2751;49.802;9.944;2022-12-24T11:19:25;12.30;99.90
5457;DHT22;2751;49.802;9.944;2022-12-24T11:22:01;12.20;99.90
5457;DHT22;2751;49.802;9.944;2022-12-24T11:24:30;12.10;99.90
5457;DHT22;2751;49.802;9.944;2022-12-24T11:27:23;11.90;99.90
5457;DHT22;2751;49.802;9.944;2022-12-24T11:30:19;11.70;99.90
5457;DHT22;2751;49.802;9.944;2022-12-24T11:32:49;11.50;99.90
5457;DHT22;2751;49.802;9.944;2022-12-24T11:35:20;11.40;99.90
5457;DHT22;2751;49.802;9.944;2022-12-24T11:37:47;11.40;99.90
5457;DHT22;2751;49.802;9.944;2022-12-24T11:40:19;11.40;99.90
5457;DHT22;2751;49.802;9.944;2022-12-24T11:42:48;11.50;99.90
5457;DHT22;2751;49.802;9.944;2022-12-24T11:45:21;11.60;99.90
5457;DHT22;2751;49.802;9.944;2022-12-24T11:47:50;11.80;99.90
5457;DHT22;2751;49.802;9.944;2022-12-24T11:50:24;12.00;99.90
5457;DHT22;2751;49.802;9.944;2022-12-24T11:52:56;12.10;99.90
5457;DHT22;2751;49.802;9.944;2022-12-24T11:55:31;12.20;99.90
5457;DHT22;2751;49.802;9.944;2022-12-24T11:58:04;12.30;99.90
5457;DHT22;2751;49.802;9.944;2022-12-24T12:00:31;12.20;99.90
5457;DHT22;2751;49.802;9.944;2022-12-24T12:03:01;12.20;99.90
5457;DHT22;2751;49.802;9.944;2022-12-24T12:05:32;12.10;99.90
5457;DHT22;2751;49.802;9.944;2022-12-24T12:08:05;12.10;99.90
5457;DHT22;2751;49.802;9.944;2022-12-24T12:10:37;12.10;99.90
5457;DHT22;2751;49.802;9.944;2022-12-24T12:13:09;12.20;99.90
5457;DHT22;2751;49.802;9.944;2022-12-24T12:15:40;12.20;99.90
5457;DHT22;2751;49.802;9.944;2022-12-24T12:18:14;11.80;99.90
5457;DHT22;2751;49.802;9.944;2022-12-24T12:20:44;12.30;99.90
5457;DHT22;2751;49.802;9.944;2022-12-24T12:23:15;12.40;99.90
5457;DHT22;2751;49.802;9.944;2022-12-24T12:25:45;12.40;99.90
5457;DHT22;2751;49.802;9.944;2022-12-24T12:28:19;12.40;99.90
5457;DHT22;2751;49.802;9.944;2022-12-24T12:30:55;12.40;99.90
5457;DHT22;2751;49.802;9.944;2022-12-24T12:33:30;12.50;99.90
5457;DHT22;2751;49.802;9.944;2022-12-24T12:36:00;12.70;99.90
5457;DHT22;2751;49.802;9.944;2022-12-24T12:38:28;12.90;99.90
5457;DHT22;2751;49.802;9.944;2022-12-24T12:41:18;13.20;99.90
5457;DHT22;2751;49.802;9.944;2022-12-24T12:44:09;13.20;99.90
5457;DHT22;2751;49.802;9.944;2022-12-24T12:46:46;13.20;99.90
5457;DHT22;2751;49.802;9.944;2022-12-24T12:49:30;13.30;99.90
5457;DHT22;2751;49.802;9.944;2022-12-24T12:52:04;13.30;99.90
5457;DHT22;2751;49.802;9.944;2022-12-24T12:54:46;13.20;99.90
5457;DHT22;2751;49.802;9.944;2022-12-24T12:57:17;13.30;99.90
5457;DHT22;2751;49.802;9.944;2022-12-24T12:59:48;13.10;99.90
5457;DHT22;2751;49.802;9.944;2022-12-24T13:02:50;12.90;99.90
5457;DHT22;2751;49.802;9.944;2022-12-24T13:05:51;12.90;99.90
5457;DHT22;2751;49.802;9.944;2022-12-24T13:09:02;13.00;99.90
5457;DHT22;2751;49.802;9.944;2022-12-24T13:11:56;13.00;99.90
5457;DHT22;2751;49.802;9.944;2022-12-24T13:14:47;12.80;99.90
5457;DHT22;2751;49.802;9.944;2022-12-24T13:17:38;12.70;99.90
5457;DHT22;2751;49.802;9.944;2022-12-24T13:20:22;12.60;99.90
5457;DHT22;2751;49.802;9.944;2022-12-24T13:22:56;12.50;99.90
5457;DHT22;2751;49.802;9.944;2022-12-24T13:25:29;12.40;99.90
5457;DHT22;2751;49.802;9.944;2022-12-24T13:28:14;12.20;99.90
5457;DHT22;2751;49.802;9.944;2022-12-24T13:30:42;12.10;99.90
5457;DHT22;2751;49.802;9.944;2022-12-24T13:33:11;12.00;99.90
5457;DHT22;2751;49.802;9.944;2022-12-24T13:35:56;12.00;99.90
5457;DHT22;2751;49.802;9.944;2022-12-24T13:38:38;11.90;99.90
5457;DHT22;2751;49.802;9.944;2022-12-24T13:44:26;11.60;99.90
5457;DHT22;2751;49.802;9.944;2022-12-24T13:47:03;11.60;99.90
5457;DHT22;2751;49.802;9.944;2022-12-24T13:49:44;11.50;99.90
5457;DHT22;2751;49.802;9.944;2022-12-24T13:52:29;11.30;99.90
5457;DHT22;2751;49.802;9.944;2022-12-24T13:55:05;11.10;99.90
5457;DHT22;2751;49.802;9.944;2022-12-24T13:57:39;11.10;99.90
5457;DHT22;2751;49.802;9.944;2022-12-24T14:00:24;11.00;99.90
5457;DHT22;2751;49.802;9.944;2022-12-24T14:02:54;10.90;99.90
5457;DHT22;2751;49.802;9.944;2022-12-24T14:05:28;10.90;99.90
5457;DHT22;2751;49.802;9.944;2022-12-24T14:07:57;10.90;99.90
5457;DHT22;2751;49.802;9.944;2022-12-24T14:10:30;10.90;99.90
5457;DHT22;2751;49.802;9.944;2022-12-24T14:12:57;10.90;99.90
5457;DHT22;2751;49.802;9.944;2022-12-24T14:15:44;10.90;99.90
5457;DHT22;2751;49.802;9.944;2022-12-24T14:18:16;11.10;99.90
5457;DHT22;2751;49.802;9.944;2022-12-24T14:20:47;11.00;99.90
5457;DHT22;2751;49.802;9.944;2022-12-24T14:23:22;11.00;99.90
5457;DHT22;2751;49.802;9.944;2022-12-24T14:25:53;10.90;99.90
5457;DHT22;2751;49.802;9.944;2022-12-24T14:28:25;10.90;99.90
5457;DHT22;2751;49.802;9.944;2022-12-24T14:30:59;10.80;99.90
5457;DHT22;2751;49.802;9.944;2022-12-24T14:33:27;10.70;99.90
5457;DHT22;2751;49.802;9.944;2022-12-24T14:35:55;10.70;99.90
5457;DHT22;2751;49.802;9.944;2022-12-24T14:38:22;10.60;99.90
5457;DHT22;2751;49.802;9.944;2022-12-24T14:40:54;10.60;99.90
5457;DHT22;2751;49.802;9.944;2022-12-24T14:43:29;10.50;99.90
5457;DHT22;2751;49.802;9.944;2022-12-24T14:46:09;10.40;99.90
5457;DHT22;2751;49.802;9.944;2022-12-24T14:48:41;10.30;99.90
5457;DHT22;2751;49.802;9.944;2022-12-24T14:51:17;10.20;99.90
5457;DHT22;2751;49.802;9.944;2022-12-24T14:54:01;10.30;99.90
5457;DHT22;2751;49.802;9.944;2022-12-24T14:56:33;10.10;99.90
5457;DHT22;2751;49.802;9.944;2022-12-24T14:59:02;10.10;99.90
5457;DHT22;2751;49.802;9.944;2022-12-24T15:01:39;10.10;99.90
5457;DHT22;2751;49.802;9.944;2022-12-24T15:04:14;10.00;99.90
5457;DHT22;2751;49.802;9.944;2022-12-24T15:06:43;10.00;99.90
5457;DHT22;2751;49.802;9.944;2022-12-24T15:09:17;10.00;99.90
5457;DHT22;2751;49.802;9.944;2022-12-24T15:11:47;9.90;99.90
5457;DHT22;2751;49.802;9.944;2022-12-24T15:14:15;9.90;99.90
5457;DHT22;2751;49.802;9.944;2022-12-24T15:16:50;9.90;99.90
5457;DHT22;2751;49.802;9.944;2022-12-24T15:19:22;10.10;99.90
5457;DHT22;2751;49.802;9.944;2022-12-24T15:21:49;10.20;99.90
5457;DHT22;2751;49.802;9.944;2022-12-24T15:24:24;9.90;99.90
5457;DHT22;2751;49.802;9.944;2022-12-24T15:26:54;9.90;99.90
5457;DHT22;2751;49.802;9.944;2022-12-24T15:29:22;9.80;99.90
5457;DHT22;2751;49.802;9.944;2022-12-24T15:31:53;10.20;99.90
5457;DHT22;2751;49.802;9.944;2022-12-24T15:34:26;9.70;99.90
5457;DHT22;2751;49.802;9.944;2022-12-24T15:37:01;9.90;99.90
5457;DHT22;2751;49.802;9.944;2022-12-24T15:39:28;9.90;99.90
5457;DHT22;2751;49.802;9.944;2022-12-24T15:41:57;9.90;99.90
5457;DHT22;2751;49.802;9.944;2022-12-24T15:44:43;9.50;99.90
5457;DHT22;2751;49.802;9.944;2022-12-24T15:47:15;9.60;99.90
5457;DHT22;2751;49.802;9.944;2022-12-24T15:49:46;9.40;99.90
5457;DHT22;2751;49.802;9.944;2022-12-24T15:52:16;9.30;99.90
5457;DHT22;2751;49.802;9.944;2022-12-24T15:54:46;9.30;99.90
5457;DHT22;2751;49.802;9.944;2022-12-24T15:57:21;9.20;99.90
5457;DHT22;2751;49.802;9.944;2022-12-24T15:59:50;9.20;99.90
5457;DHT22;2751;49.802;9.944;2022-12-24T16:02:37;9.20;99.90
5457;DHT22;2751;49.802;9.944;2022-12-24T16:05:30;9.00;99.90
5457;DHT22;2751;49.802;9.944;2022-12-24T16:08:20;9.00;99.90
5457;DHT22;2751;49.802;9.944;2022-12-24T16:10:50;9.00;99.90
5457;DHT22;2751;49.802;9.944;2022-12-24T16:13:21;8.90;99.90
5457;DHT22;2751;49.802;9.944;2022-12-24T16:15:52;8.90;99.90
5457;DHT22;2751;49.802;9.944;2022-12-24T16:18:23;8.80;99.90
5457;DHT22;2751;49.802;9.944;2022-12-24T16:20:52;8.80;99.90
5457;DHT22;2751;49.802;9.944;2022-12-24T16:23:22;8.70;99.90
5457;DHT22;2751;49.802;9.944;2022-12-24T16:25:50;8.80;99.90
5457;DHT22;2751;49.802;9.944;2022-12-24T16:28:19;8.80;99.90
5457;DHT22;2751;49.802;9.944;2022-12-24T16:30:47;8.80;99.90